Terminal Aerodrome Forecast
Issued by NWS

Home | Current Version | Previous Version | Text Only | Print | Product List | Glossary On
Versions: 1 2 3 4 5 6 7 8 9 10 11 12 13 14 15 16 17
947
FTUS43 KLSX 302332
TAFCPS
TAF
KCPS 302332Z 3100/3124 25005KT P6SM SCT040 BKN120
     FM310300 VRB03KT P6SM SCT250
     FM311800 16007KT P6SM VCSH BKN050=

USA.gov is the U.S. government's official web portal to all federal, state and local government web resources and services.